sensor_id;sensor_type;location;lat;lon;timestamp;temperature;humidity
26107;DHT22;13866;50.748;12.630;2022-12-07T00:01:30;1.00;99.90
26107;DHT22;13866;50.748;12.630;2022-12-07T00:04:00;1.00;99.90
26107;DHT22;13866;50.748;12.630;2022-12-07T00:06:31;1.00;99.90
26107;DHT22;13866;50.748;12.630;2022-12-07T00:08:57;1.10;99.90
26107;DHT22;13866;50.748;12.630;2022-12-07T00:11:23;1.00;99.90
26107;DHT22;13866;50.748;12.630;2022-12-07T00:13:53;1.00;99.90
26107;DHT22;13866;50.748;12.630;2022-12-07T00:16:21;1.00;99.90
26107;DHT22;13866;50.748;12.630;2022-12-07T00:18:47;1.00;99.90
26107;DHT22;13866;50.748;12.630;2022-12-07T00:21:18;1.00;99.90
26107;DHT22;13866;50.748;12.630;2022-12-07T00:23:45;1.00;99.90
26107;DHT22;13866;50.748;12.630;2022-12-07T00:28:38;1.10;99.90
26107;DHT22;13866;50.748;12.630;2022-12-07T00:31:07;1.10;99.90
26107;DHT22;13866;50.748;12.630;2022-12-07T00:33:34;1.10;99.90
26107;DHT22;13866;50.748;12.630;2022-12-07T00:36:00;1.10;99.90
26107;DHT22;13866;50.748;12.630;2022-12-07T00:38:31;1.10;99.90
26107;DHT22;13866;50.748;12.630;2022-12-07T00:41:03;1.10;99.90
26107;DHT22;13866;50.748;12.630;2022-12-07T00:43:29;1.10;99.90
26107;DHT22;13866;50.748;12.630;2022-12-07T00:45:55;1.00;99.90
26107;DHT22;13866;50.748;12.630;2022-12-07T00:48:21;1.00;99.90
26107;DHT22;13866;50.748;12.630;2022-12-07T00:50:47;1.00;99.90
26107;DHT22;13866;50.748;12.630;2022-12-07T00:53:13;1.00;99.90
26107;DHT22;13866;50.748;12.630;2022-12-07T00:55:39;1.00;99.90
26107;DHT22;13866;50.748;12.630;2022-12-07T00:58:04;1.00;99.90
26107;DHT22;13866;50.748;12.630;2022-12-07T01:00:30;1.00;99.90
26107;DHT22;13866;50.748;12.630;2022-12-07T01:02:56;1.00;99.90
26107;DHT22;13866;50.748;12.630;2022-12-07T01:05:22;1.00;99.90
26107;DHT22;13866;50.748;12.630;2022-12-07T01:07:47;1.00;99.90
26107;DHT22;13866;50.748;12.630;2022-12-07T01:10:13;1.00;99.90
26107;DHT22;13866;50.748;12.630;2022-12-07T01:12:40;1.10;99.90
26107;DHT22;13866;50.748;12.630;2022-12-07T01:15:06;1.00;99.90
26107;DHT22;13866;50.748;12.630;2022-12-07T01:17:32;1.00;99.90
26107;DHT22;13866;50.748;12.630;2022-12-07T01:19:58;1.00;99.90
26107;DHT22;13866;50.748;12.630;2022-12-07T01:22:23;1.00;99.90
26107;DHT22;13866;50.748;12.630;2022-12-07T01:24:49;1.00;99.90
26107;DHT22;13866;50.748;12.630;2022-12-07T01:27:15;0.90;99.90
26107;DHT22;13866;50.748;12.630;2022-12-07T01:29:40;0.90;99.90
26107;DHT22;13866;50.748;12.630;2022-12-07T01:32:06;0.90;99.90
26107;DHT22;13866;50.748;12.630;2022-12-07T01:34:32;0.90;99.90
26107;DHT22;13866;50.748;12.630;2022-12-07T01:36:57;0.80;99.90
26107;DHT22;13866;50.748;12.630;2022-12-07T01:39:23;0.80;99.90
26107;DHT22;13866;50.748;12.630;2022-12-07T01:41:49;0.80;99.90
26107;DHT22;13866;50.748;12.630;2022-12-07T01:46:48;0.70;99.90
26107;DHT22;13866;50.748;12.630;2022-12-07T01:49:38;0.70;99.90
26107;DHT22;13866;50.748;12.630;2022-12-07T01:52:25;0.60;99.90
26107;DHT22;13866;50.748;12.630;2022-12-07T01:54:56;0.50;99.90
26107;DHT22;13866;50.748;12.630;2022-12-07T01:57:22;0.50;99.90
26107;DHT22;13866;50.748;12.630;2022-12-07T01:59:49;0.40;99.90
26107;DHT22;13866;50.748;12.630;2022-12-07T02:02:24;0.30;99.90
26107;DHT22;13866;50.748;12.630;2022-12-07T02:04:52;0.30;99.90
26107;DHT22;13866;50.748;12.630;2022-12-07T02:07:19;0.20;99.90
26107;DHT22;13866;50.748;12.630;2022-12-07T02:09:45;0.20;99.90
26107;DHT22;13866;50.748;12.630;2022-12-07T02:12:10;0.10;99.90
26107;DHT22;13866;50.748;12.630;2022-12-07T02:14:36;0.10;99.90
26107;DHT22;13866;50.748;12.630;2022-12-07T02:22:47;0.10;99.90
26107;DHT22;13866;50.748;12.630;2022-12-07T02:25:30;0.00;99.90
26107;DHT22;13866;50.748;12.630;2022-12-07T02:30:51;-0.10;99.90
26107;DHT22;13866;50.748;12.630;2022-12-07T02:36:20;-0.10;99.90
26107;DHT22;13866;50.748;12.630;2022-12-07T02:38:58;-0.20;99.90
26107;DHT22;13866;50.748;12.630;2022-12-07T02:41:33;-0.20;99.90
26107;DHT22;13866;50.748;12.630;2022-12-07T02:44:11;-0.30;99.90
26107;DHT22;13866;50.748;12.630;2022-12-07T02:46:47;-0.30;99.90
26107;DHT22;13866;50.748;12.630;2022-12-07T02:49:15;-0.30;99.90
26107;DHT22;13866;50.748;12.630;2022-12-07T02:51:43;-0.30;99.90
26107;DHT22;13866;50.748;12.630;2022-12-07T02:54:14;-0.30;99.90
26107;DHT22;13866;50.748;12.630;2022-12-07T03:13:23;-0.10;99.90
26107;DHT22;13866;50.748;12.630;2022-12-07T03:15:58;-0.20;99.90
26107;DHT22;13866;50.748;12.630;2022-12-07T03:18:29;-0.10;99.90
26107;DHT22;13866;50.748;12.630;2022-12-07T03:21:01;-0.10;99.90
26107;DHT22;13866;50.748;12.630;2022-12-07T03:23:28;-0.10;99.90
26107;DHT22;13866;50.748;12.630;2022-12-07T03:25:58;-0.10;99.90
26107;DHT22;13866;50.748;12.630;2022-12-07T03:28:29;-0.10;99.90
26107;DHT22;13866;50.748;12.630;2022-12-07T03:31:04;-0.10;99.90
26107;DHT22;13866;50.748;12.630;2022-12-07T03:33:38;-0.10;99.90
26107;DHT22;13866;50.748;12.630;2022-12-07T03:36:18;0.00;99.90
26107;DHT22;13866;50.748;12.630;2022-12-07T03:39:13;-0.10;99.90
26107;DHT22;13866;50.748;12.630;2022-12-07T03:41:34;0.00;99.90
26107;DHT22;13866;50.748;12.630;2022-12-07T03:44:01;0.00;99.90
26107;DHT22;13866;50.748;12.630;2022-12-07T03:46:55;0.00;99.90
26107;DHT22;13866;50.748;12.630;2022-12-07T03:49:51;0.00;99.90
26107;DHT22;13866;50.748;12.630;2022-12-07T03:52:23;0.00;99.90
26107;DHT22;13866;50.748;12.630;2022-12-07T03:55:02;0.10;99.90
26107;DHT22;13866;50.748;12.630;2022-12-07T03:57:31;0.10;99.90
26107;DHT22;13866;50.748;12.630;2022-12-07T03:59:58;0.10;99.90
26107;DHT22;13866;50.748;12.630;2022-12-07T04:02:26;0.10;99.90
26107;DHT22;13866;50.748;12.630;2022-12-07T04:04:53;0.10;99.90
26107;DHT22;13866;50.748;12.630;2022-12-07T04:07:18;0.10;99.90
26107;DHT22;13866;50.748;12.630;2022-12-07T04:09:44;0.10;99.90
26107;DHT22;13866;50.748;12.630;2022-12-07T04:12:09;0.10;99.90
26107;DHT22;13866;50.748;12.630;2022-12-07T04:14:35;0.20;99.90
26107;DHT22;13866;50.748;12.630;2022-12-07T04:17:00;0.10;99.90
26107;DHT22;13866;50.748;12.630;2022-12-07T04:19:28;0.20;99.90
26107;DHT22;13866;50.748;12.630;2022-12-07T04:21:56;0.20;99.90
26107;DHT22;13866;50.748;12.630;2022-12-07T04:24:22;0.10;99.90
26107;DHT22;13866;50.748;12.630;2022-12-07T04:26:48;0.10;99.90
26107;DHT22;13866;50.748;12.630;2022-12-07T04:29:15;0.10;99.90
26107;DHT22;13866;50.748;12.630;2022-12-07T04:31:41;0.10;99.90
26107;DHT22;13866;50.748;12.630;2022-12-07T04:34:07;0.10;99.90
26107;DHT22;13866;50.748;12.630;2022-12-07T04:36:32;0.10;99.90
26107;DHT22;13866;50.748;12.630;2022-12-07T04:38:59;0.10;99.90
26107;DHT22;13866;50.748;12.630;2022-12-07T04:41:24;0.10;99.90
26107;DHT22;13866;50.748;12.630;2022-12-07T04:43:57;0.10;99.90
26107;DHT22;13866;50.748;12.630;2022-12-07T04:46:24;0.10;99.90
26107;DHT22;13866;50.748;12.630;2022-12-07T04:48:51;0.20;99.90
26107;DHT22;13866;50.748;12.630;2022-12-07T04:51:23;0.20;99.90
26107;DHT22;13866;50.748;12.630;2022-12-07T04:53:49;0.20;99.90
26107;DHT22;13866;50.748;12.630;2022-12-07T04:56:16;0.20;99.90
26107;DHT22;13866;50.748;12.630;2022-12-07T04:58:42;0.20;99.90
26107;DHT22;13866;50.748;12.630;2022-12-07T05:01:08;0.30;99.90
26107;DHT22;13866;50.748;12.630;2022-12-07T05:03:35;0.30;99.90
26107;DHT22;13866;50.748;12.630;2022-12-07T05:06:00;0.30;99.90
26107;DHT22;13866;50.748;12.630;2022-12-07T05:08:26;0.30;99.90
26107;DHT22;13866;50.748;12.630;2022-12-07T05:10:51;0.30;99.90
26107;DHT22;13866;50.748;12.630;2022-12-07T05:13:17;0.30;99.90
26107;DHT22;13866;50.748;12.630;2022-12-07T05:15:42;0.40;99.90
26107;DHT22;13866;50.748;12.630;2022-12-07T05:18:09;0.40;99.90
26107;DHT22;13866;50.748;12.630;2022-12-07T05:20:37;0.40;99.90
26107;DHT22;13866;50.748;12.630;2022-12-07T05:23:02;0.40;99.90
26107;DHT22;13866;50.748;12.630;2022-12-07T05:25:28;0.40;99.90
26107;DHT22;13866;50.748;12.630;2022-12-07T05:27:55;0.40;99.90
26107;DHT22;13866;50.748;12.630;2022-12-07T05:30:22;0.40;99.90
26107;DHT22;13866;50.748;12.630;2022-12-07T05:32:47;0.40;99.90
26107;DHT22;13866;50.748;12.630;2022-12-07T05:35:13;0.40;99.90
26107;DHT22;13866;50.748;12.630;2022-12-07T05:37:39;0.40;99.90
26107;DHT22;13866;50.748;12.630;2022-12-07T05:40:05;0.40;99.90
26107;DHT22;13866;50.748;12.630;2022-12-07T05:42:30;0.40;99.90
26107;DHT22;13866;50.748;12.630;2022-12-07T05:44:56;0.40;99.90
26107;DHT22;13866;50.748;12.630;2022-12-07T05:47:21;0.40;99.90
26107;DHT22;13866;50.748;12.630;2022-12-07T05:49:47;0.40;99.90
26107;DHT22;13866;50.748;12.630;2022-12-07T05:52:12;0.40;99.90
26107;DHT22;13866;50.748;12.630;2022-12-07T05:54:38;0.30;99.90
26107;DHT22;13866;50.748;12.630;2022-12-07T05:57:04;0.30;99.90
26107;DHT22;13866;50.748;12.630;2022-12-07T05:59:29;0.40;99.90
26107;DHT22;13866;50.748;12.630;2022-12-07T06:02:06;0.40;99.90
26107;DHT22;13866;50.748;12.630;2022-12-07T06:04:34;0.40;99.90
26107;DHT22;13866;50.748;12.630;2022-12-07T06:07:00;0.40;99.90
26107;DHT22;13866;50.748;12.630;2022-12-07T06:09:27;0.40;99.90
26107;DHT22;13866;50.748;12.630;2022-12-07T06:11:54;0.30;99.90
26107;DHT22;13866;50.748;12.630;2022-12-07T06:14:38;0.40;99.90
26107;DHT22;13866;50.748;12.630;2022-12-07T06:17:04;0.40;99.90
26107;DHT22;13866;50.748;12.630;2022-12-07T06:19:30;0.40;99.90
26107;DHT22;13866;50.748;12.630;2022-12-07T06:21:55;0.40;99.90
26107;DHT22;13866;50.748;12.630;2022-12-07T06:24:21;0.40;99.90
26107;DHT22;13866;50.748;12.630;2022-12-07T06:26:47;0.40;99.90
26107;DHT22;13866;50.748;12.630;2022-12-07T06:29:13;0.40;99.90
26107;DHT22;13866;50.748;12.630;2022-12-07T06:31:39;0.40;99.90
26107;DHT22;13866;50.748;12.630;2022-12-07T06:34:08;0.40;99.90
26107;DHT22;13866;50.748;12.630;2022-12-07T06:36:34;0.40;99.90
26107;DHT22;13866;50.748;12.630;2022-12-07T06:38:59;0.50;99.90
26107;DHT22;13866;50.748;12.630;2022-12-07T06:41:25;0.50;99.90
26107;DHT22;13866;50.748;12.630;2022-12-07T06:43:50;0.50;99.90
26107;DHT22;13866;50.748;12.630;2022-12-07T06:46:16;0.60;99.90
26107;DHT22;13866;50.748;12.630;2022-12-07T06:48:42;0.60;99.90
26107;DHT22;13866;50.748;12.630;2022-12-07T06:51:08;0.60;99.90
26107;DHT22;13866;50.748;12.630;2022-12-07T06:53:35;0.60;99.90
26107;DHT22;13866;50.748;12.630;2022-12-07T06:56:01;0.60;99.90
26107;DHT22;13866;50.748;12.630;2022-12-07T06:58:27;0.60;99.90
26107;DHT22;13866;50.748;12.630;2022-12-07T07:00:53;0.60;99.90
26107;DHT22;13866;50.748;12.630;2022-12-07T07:03:19;0.60;99.90
26107;DHT22;13866;50.748;12.630;2022-12-07T07:05:45;0.60;99.90
26107;DHT22;13866;50.748;12.630;2022-12-07T07:08:11;0.70;99.90
26107;DHT22;13866;50.748;12.630;2022-12-07T07:10:37;0.70;99.90
26107;DHT22;13866;50.748;12.630;2022-12-07T07:13:03;0.70;99.90
26107;DHT22;13866;50.748;12.630;2022-12-07T07:15:30;0.80;99.90
26107;DHT22;13866;50.748;12.630;2022-12-07T07:17:56;0.80;99.90
26107;DHT22;13866;50.748;12.630;2022-12-07T07:20:22;0.80;99.90
26107;DHT22;13866;50.748;12.630;2022-12-07T07:22:48;0.80;99.90
26107;DHT22;13866;50.748;12.630;2022-12-07T07:25:14;0.80;99.90
26107;DHT22;13866;50.748;12.630;2022-12-07T07:27:40;0.80;99.90
26107;DHT22;13866;50.748;12.630;2022-12-07T07:30:06;0.80;99.90
26107;DHT22;13866;50.748;12.630;2022-12-07T07:32:32;0.80;99.90
26107;DHT22;13866;50.748;12.630;2022-12-07T07:34:58;0.90;99.90
26107;DHT22;13866;50.748;12.630;2022-12-07T07:37:23;0.90;99.90
26107;DHT22;13866;50.748;12.630;2022-12-07T07:39:49;0.90;99.90
26107;DHT22;13866;50.748;12.630;2022-12-07T07:42:14;0.90;99.90
26107;DHT22;13866;50.748;12.630;2022-12-07T07:44:40;0.90;99.90
26107;DHT22;13866;50.748;12.630;2022-12-07T07:47:05;0.90;99.90
26107;DHT22;13866;50.748;12.630;2022-12-07T07:49:31;0.90;99.90
26107;DHT22;13866;50.748;12.630;2022-12-07T07:51:56;0.90;99.90
26107;DHT22;13866;50.748;12.630;2022-12-07T07:54:22;0.90;99.90
26107;DHT22;13866;50.748;12.630;2022-12-07T07:56:47;0.90;99.90
26107;DHT22;13866;50.748;12.630;2022-12-07T07:59:14;1.00;99.90
26107;DHT22;13866;50.748;12.630;2022-12-07T08:01:39;1.00;99.90
26107;DHT22;13866;50.748;12.630;2022-12-07T08:04:05;1.10;99.90
26107;DHT22;13866;50.748;12.630;2022-12-07T08:06:30;1.00;99.90
26107;DHT22;13866;50.748;12.630;2022-12-07T08:08:56;1.00;99.90
26107;DHT22;13866;50.748;12.630;2022-12-07T08:11:23;1.10;99.90
26107;DHT22;13866;50.748;12.630;2022-12-07T08:13:48;1.00;99.90
26107;DHT22;13866;50.748;12.630;2022-12-07T08:16:14;1.00;99.90
26107;DHT22;13866;50.748;12.630;2022-12-07T08:18:41;0.90;99.90
26107;DHT22;13866;50.748;12.630;2022-12-07T08:21:09;0.90;99.90
26107;DHT22;13866;50.748;12.630;2022-12-07T08:23:36;0.90;99.90
26107;DHT22;13866;50.748;12.630;2022-12-07T08:26:06;0.90;99.90
26107;DHT22;13866;50.748;12.630;2022-12-07T08:28:31;0.90;99.90
26107;DHT22;13866;50.748;12.630;2022-12-07T08:31:02;0.90;99.90
26107;DHT22;13866;50.748;12.630;2022-12-07T08:33:27;0.90;99.90
26107;DHT22;13866;50.748;12.630;2022-12-07T08:35:53;0.90;99.90
26107;DHT22;13866;50.748;12.630;2022-12-07T08:38:19;0.90;99.90
26107;DHT22;13866;50.748;12.630;2022-12-07T08:40:44;0.90;99.90
26107;DHT22;13866;50.748;12.630;2022-12-07T08:43:10;0.90;99.90
26107;DHT22;13866;50.748;12.630;2022-12-07T08:45:35;1.00;99.90
26107;DHT22;13866;50.748;12.630;2022-12-07T08:48:08;1.00;99.90
26107;DHT22;13866;50.748;12.630;2022-12-07T08:50:36;1.10;99.90
26107;DHT22;13866;50.748;12.630;2022-12-07T08:53:03;1.10;99.90
26107;DHT22;13866;50.748;12.630;2022-12-07T08:55:30;1.20;99.90
26107;DHT22;13866;50.748;12.630;2022-12-07T08:57:57;1.20;99.90
26107;DHT22;13866;50.748;12.630;2022-12-07T09:00:23;1.30;99.90
26107;DHT22;13866;50.748;12.630;2022-12-07T09:02:49;1.40;99.90
26107;DHT22;13866;50.748;12.630;2022-12-07T09:05:15;1.50;99.90
26107;DHT22;13866;50.748;12.630;2022-12-07T09:07:43;1.50;99.90
26107;DHT22;13866;50.748;12.630;2022-12-07T09:10:09;1.60;99.90
26107;DHT22;13866;50.748;12.630;2022-12-07T09:12:34;1.70;99.90
26107;DHT22;13866;50.748;12.630;2022-12-07T09:15:01;1.70;99.90
26107;DHT22;13866;50.748;12.630;2022-12-07T09:17:26;1.80;99.90
26107;DHT22;13866;50.748;12.630;2022-12-07T09:19:52;1.90;99.90
26107;DHT22;13866;50.748;12.630;2022-12-07T09:22:17;2.00;99.90
26107;DHT22;13866;50.748;12.630;2022-12-07T09:24:43;2.10;99.90
26107;DHT22;13866;50.748;12.630;2022-12-07T09:27:11;2.20;99.90
26107;DHT22;13866;50.748;12.630;2022-12-07T09:29:36;2.10;99.90
26107;DHT22;13866;50.748;12.630;2022-12-07T09:32:02;2.20;99.90
26107;DHT22;13866;50.748;12.630;2022-12-07T09:34:30;2.20;99.90
26107;DHT22;13866;50.748;12.630;2022-12-07T09:36:56;2.20;99.90
26107;DHT22;13866;50.748;12.630;2022-12-07T09:39:21;2.20;99.90
26107;DHT22;13866;50.748;12.630;2022-12-07T09:41:47;2.20;99.90
26107;DHT22;13866;50.748;12.630;2022-12-07T09:44:18;2.20;99.90
26107;DHT22;13866;50.748;12.630;2022-12-07T09:46:45;2.30;99.90
26107;DHT22;13866;50.748;12.630;2022-12-07T09:49:20;2.30;99.90
26107;DHT22;13866;50.748;12.630;2022-12-07T09:51:47;2.30;99.90
26107;DHT22;13866;50.748;12.630;2022-12-07T09:54:15;2.40;99.90
26107;DHT22;13866;50.748;12.630;2022-12-07T09:56:42;2.40;99.90
26107;DHT22;13866;50.748;12.630;2022-12-07T09:59:17;2.50;99.90
26107;DHT22;13866;50.748;12.630;2022-12-07T10:01:45;2.50;99.90
26107;DHT22;13866;50.748;12.630;2022-12-07T10:04:13;2.50;99.90
26107;DHT22;13866;50.748;12.630;2022-12-07T10:06:41;2.50;99.90
26107;DHT22;13866;50.748;12.630;2022-12-07T10:09:17;2.60;99.90
26107;DHT22;13866;50.748;12.630;2022-12-07T10:12:03;2.50;99.90
26107;DHT22;13866;50.748;12.630;2022-12-07T10:14:31;2.60;99.90
26107;DHT22;13866;50.748;12.630;2022-12-07T10:16:58;2.60;99.90
26107;DHT22;13866;50.748;12.630;2022-12-07T10:19:32;2.60;99.90
26107;DHT22;13866;50.748;12.630;2022-12-07T10:24:28;2.70;99.90
26107;DHT22;13866;50.748;12.630;2022-12-07T10:26:54;2.70;99.90
26107;DHT22;13866;50.748;12.630;2022-12-07T10:34:36;2.70;99.90
26107;DHT22;13866;50.748;12.630;2022-12-07T10:39:51;2.80;99.90
26107;DHT22;13866;50.748;12.630;2022-12-07T10:42:25;2.80;99.90
26107;DHT22;13866;50.748;12.630;2022-12-07T10:45:16;2.70;99.90
26107;DHT22;13866;50.748;12.630;2022-12-07T10:48:12;2.70;99.90
26107;DHT22;13866;50.748;12.630;2022-12-07T10:53:56;2.60;99.90
26107;DHT22;13866;50.748;12.630;2022-12-07T10:58:59;2.60;99.90
26107;DHT22;13866;50.748;12.630;2022-12-07T11:04:29;2.60;99.90
26107;DHT22;13866;50.748;12.630;2022-12-07T11:07:12;2.70;99.90
26107;DHT22;13866;50.748;12.630;2022-12-07T11:12:59;2.80;99.90
26107;DHT22;13866;50.748;12.630;2022-12-07T11:18:29;2.90;99.90
26107;DHT22;13866;50.748;12.630;2022-12-07T11:21:15;2.90;99.90
26107;DHT22;13866;50.748;12.630;2022-12-07T11:24:12;3.00;99.90
26107;DHT22;13866;50.748;12.630;2022-12-07T11:30:08;3.00;99.90
26107;DHT22;13866;50.748;12.630;2022-12-07T11:32:40;3.00;99.90
26107;DHT22;13866;50.748;12.630;2022-12-07T11:38:15;3.00;99.90
26107;DHT22;13866;50.748;12.630;2022-12-07T11:40:46;3.00;99.90
26107;DHT22;13866;50.748;12.630;2022-12-07T11:43:32;3.00;99.90
26107;DHT22;13866;50.748;12.630;2022-12-07T11:46:07;3.00;99.90
26107;DHT22;13866;50.748;12.630;2022-12-07T11:51:07;2.90;99.90
26107;DHT22;13866;50.748;12.630;2022-12-07T11:53:49;2.90;99.90
26107;DHT22;13866;50.748;12.630;2022-12-07T11:56:21;2.90;99.90
26107;DHT22;13866;50.748;12.630;2022-12-07T12:06:43;2.90;99.90
26107;DHT22;13866;50.748;12.630;2022-12-07T12:09:18;2.90;99.90
26107;DHT22;13866;50.748;12.630;2022-12-07T12:12:31;2.90;99.90
26107;DHT22;13866;50.748;12.630;2022-12-07T12:15:20;2.90;99.90
26107;DHT22;13866;50.748;12.630;2022-12-07T12:21:02;2.90;99.90
26107;DHT22;13866;50.748;12.630;2022-12-07T12:23:54;3.00;99.90
26107;DHT22;13866;50.748;12.630;2022-12-07T12:26:23;3.00;99.90
26107;DHT22;13866;50.748;12.630;2022-12-07T12:28:58;3.10;99.90
26107;DHT22;13866;50.748;12.630;2022-12-07T12:33:55;3.20;99.90
26107;DHT22;13866;50.748;12.630;2022-12-07T12:36:43;3.20;99.90
26107;DHT22;13866;50.748;12.630;2022-12-07T12:39:13;3.20;99.90
26107;DHT22;13866;50.748;12.630;2022-12-07T12:49:40;3.30;99.90
26107;DHT22;13866;50.748;12.630;2022-12-07T12:55:11;3.20;99.90
26107;DHT22;13866;50.748;12.630;2022-12-07T12:57:37;3.20;99.90
26107;DHT22;13866;50.748;12.630;2022-12-07T13:02:55;3.20;99.90
26107;DHT22;13866;50.748;12.630;2022-12-07T13:05:23;3.10;99.90
26107;DHT22;13866;50.748;12.630;2022-12-07T13:15:46;3.20;99.90
26107;DHT22;13866;50.748;12.630;2022-12-07T13:29:15;3.20;99.90
26107;DHT22;13866;50.748;12.630;2022-12-07T13:31:53;3.20;99.90
26107;DHT22;13866;50.748;12.630;2022-12-07T13:36:57;3.20;99.90
26107;DHT22;13866;50.748;12.630;2022-12-07T13:39:25;3.20;99.90
26107;DHT22;13866;50.748;12.630;2022-12-07T13:41:56;3.20;99.90
26107;DHT22;13866;50.748;12.630;2022-12-07T13:44:23;3.20;99.90
26107;DHT22;13866;50.748;12.630;2022-12-07T13:49:26;3.10;99.90
26107;DHT22;13866;50.748;12.630;2022-12-07T13:51:53;3.10;99.90
26107;DHT22;13866;50.748;12.630;2022-12-07T13:54:20;3.10;99.90
26107;DHT22;13866;50.748;12.630;2022-12-07T13:56:52;3.10;99.90
26107;DHT22;13866;50.748;12.630;2022-12-07T13:59:21;3.10;99.90
26107;DHT22;13866;50.748;12.630;2022-12-07T14:01:49;3.10;99.90
26107;DHT22;13866;50.748;12.630;2022-12-07T14:04:36;3.10;99.90
26107;DHT22;13866;50.748;12.630;2022-12-07T14:07:25;3.10;99.90
26107;DHT22;13866;50.748;12.630;2022-12-07T14:10:05;3.00;99.90
26107;DHT22;13866;50.748;12.630;2022-12-07T14:12:32;3.00;99.90
26107;DHT22;13866;50.748;12.630;2022-12-07T14:14:59;3.00;99.90
26107;DHT22;13866;50.748;12.630;2022-12-07T14:17:26;2.90;99.90
26107;DHT22;13866;50.748;12.630;2022-12-07T14:19:57;2.90;99.90
26107;DHT22;13866;50.748;12.630;2022-12-07T14:27:38;2.90;99.90
26107;DHT22;13866;50.748;12.630;2022-12-07T14:30:05;2.80;99.90
26107;DHT22;13866;50.748;12.630;2022-12-07T14:32:31;2.80;99.90
26107;DHT22;13866;50.748;12.630;2022-12-07T14:35:10;2.80;99.90
26107;DHT22;13866;50.748;12.630;2022-12-07T14:37:38;2.70;99.90
26107;DHT22;13866;50.748;12.630;2022-12-07T14:40:04;2.70;99.90
26107;DHT22;13866;50.748;12.630;2022-12-07T14:42:31;2.70;99.90
26107;DHT22;13866;50.748;12.630;2022-12-07T14:44:57;2.60;99.90
26107;DHT22;13866;50.748;12.630;2022-12-07T14:47:24;2.60;99.90
26107;DHT22;13866;50.748;12.630;2022-12-07T14:49:50;2.60;99.90
26107;DHT22;13866;50.748;12.630;2022-12-07T14:52:21;2.60;99.90
26107;DHT22;13866;50.748;12.630;2022-12-07T14:54:48;2.60;99.90
26107;DHT22;13866;50.748;12.630;2022-12-07T14:57:14;2.60;99.90
26107;DHT22;13866;50.748;12.630;2022-12-07T14:59:40;2.60;99.90
26107;DHT22;13866;50.748;12.630;2022-12-07T15:02:06;2.60;99.90
26107;DHT22;13866;50.748;12.630;2022-12-07T15:04:32;2.60;99.90
26107;DHT22;13866;50.748;12.630;2022-12-07T15:07:00;2.50;99.90
26107;DHT22;13866;50.748;12.630;2022-12-07T15:09:26;2.50;99.90
26107;DHT22;13866;50.748;12.630;2022-12-07T15:11:51;2.40;99.90
26107;DHT22;13866;50.748;12.630;2022-12-07T15:14:17;2.30;99.90
26107;DHT22;13866;50.748;12.630;2022-12-07T15:16:43;2.30;99.90
26107;DHT22;13866;50.748;12.630;2022-12-07T15:19:14;2.30;99.90
26107;DHT22;13866;50.748;12.630;2022-12-07T15:21:41;2.30;99.90
26107;DHT22;13866;50.748;12.630;2022-12-07T15:24:08;2.30;99.90
26107;DHT22;13866;50.748;12.630;2022-12-07T15:26:34;2.30;99.90
26107;DHT22;13866;50.748;12.630;2022-12-07T15:29:00;2.30;99.90
26107;DHT22;13866;50.748;12.630;2022-12-07T15:31:25;2.30;99.90
26107;DHT22;13866;50.748;12.630;2022-12-07T15:33:51;2.20;99.90
26107;DHT22;13866;50.748;12.630;2022-12-07T15:36:22;2.20;99.90
26107;DHT22;13866;50.748;12.630;2022-12-07T15:38:48;2.20;99.90
26107;DHT22;13866;50.748;12.630;2022-12-07T15:41:13;2.20;99.90
26107;DHT22;13866;50.748;12.630;2022-12-07T15:43:39;2.20;99.90
26107;DHT22;13866;50.748;12.630;2022-12-07T15:46:29;2.20;99.90
26107;DHT22;13866;50.748;12.630;2022-12-07T15:48:55;2.10;99.90
26107;DHT22;13866;50.748;12.630;2022-12-07T15:51:21;2.10;99.90
26107;DHT22;13866;50.748;12.630;2022-12-07T15:53:46;2.00;99.90
26107;DHT22;13866;50.748;12.630;2022-12-07T15:56:12;2.00;99.90
26107;DHT22;13866;50.748;12.630;2022-12-07T15:58:37;2.00;99.90
26107;DHT22;13866;50.748;12.630;2022-12-07T16:01:17;1.90;99.90
26107;DHT22;13866;50.748;12.630;2022-12-07T16:03:44;1.90;99.90
26107;DHT22;13866;50.748;12.630;2022-12-07T16:06:10;1.90;99.90
26107;DHT22;13866;50.748;12.630;2022-12-07T16:08:36;1.90;99.90
26107;DHT22;13866;50.748;12.630;2022-12-07T16:11:08;1.80;99.90
26107;DHT22;13866;50.748;12.630;2022-12-07T16:13:34;1.90;99.90
26107;DHT22;13866;50.748;12.630;2022-12-07T16:16:07;1.80;99.90
26107;DHT22;13866;50.748;12.630;2022-12-07T16:18:33;1.80;99.90
26107;DHT22;13866;50.748;12.630;2022-12-07T16:20:59;1.80;99.90
26107;DHT22;13866;50.748;12.630;2022-12-07T16:23:26;1.80;99.90
26107;DHT22;13866;50.748;12.630;2022-12-07T16:25:54;1.80;99.90
26107;DHT22;13866;50.748;12.630;2022-12-07T16:28:20;1.80;99.90
26107;DHT22;13866;50.748;12.630;2022-12-07T16:30:45;1.80;99.90
26107;DHT22;13866;50.748;12.630;2022-12-07T16:33:11;1.80;99.90
26107;DHT22;13866;50.748;12.630;2022-12-07T16:35:40;1.80;99.90
26107;DHT22;13866;50.748;12.630;2022-12-07T16:38:06;1.80;99.90
26107;DHT22;13866;50.748;12.630;2022-12-07T16:40:32;1.90;99.90
26107;DHT22;13866;50.748;12.630;2022-12-07T16:42:57;1.90;99.90
26107;DHT22;13866;50.748;12.630;2022-12-07T16:45:23;2.00;99.90
26107;DHT22;13866;50.748;12.630;2022-12-07T16:47:48;2.00;99.90
26107;DHT22;13866;50.748;12.630;2022-12-07T16:50:14;2.10;99.90
26107;DHT22;13866;50.748;12.630;2022-12-07T16:52:39;2.00;99.90
26107;DHT22;13866;50.748;12.630;2022-12-07T16:55:05;2.00;99.90
26107;DHT22;13866;50.748;12.630;2022-12-07T16:57:31;2.00;99.90
26107;DHT22;13866;50.748;12.630;2022-12-07T16:59:57;2.00;99.90
26107;DHT22;13866;50.748;12.630;2022-12-07T17:02:23;2.00;99.90
26107;DHT22;13866;50.748;12.630;2022-12-07T17:04:48;2.00;99.90
26107;DHT22;13866;50.748;12.630;2022-12-07T17:07:14;2.00;99.90
26107;DHT22;13866;50.748;12.630;2022-12-07T17:09:39;2.00;99.90
26107;DHT22;13866;50.748;12.630;2022-12-07T17:12:05;2.00;99.90
26107;DHT22;13866;50.748;12.630;2022-12-07T17:14:31;2.00;99.90
26107;DHT22;13866;50.748;12.630;2022-12-07T17:17:15;2.00;99.90
26107;DHT22;13866;50.748;12.630;2022-12-07T17:19:41;2.00;99.90
26107;DHT22;13866;50.748;12.630;2022-12-07T17:22:07;2.00;99.90
26107;DHT22;13866;50.748;12.630;2022-12-07T17:24:33;2.00;99.90
26107;DHT22;13866;50.748;12.630;2022-12-07T17:26:59;1.90;99.90
26107;DHT22;13866;50.748;12.630;2022-12-07T17:29:24;2.00;99.90
26107;DHT22;13866;50.748;12.630;2022-12-07T17:31:50;1.90;99.90
26107;DHT22;13866;50.748;12.630;2022-12-07T17:34:15;1.90;99.90
26107;DHT22;13866;50.748;12.630;2022-12-07T17:36:41;1.90;99.90
26107;DHT22;13866;50.748;12.630;2022-12-07T17:39:13;1.90;99.90
26107;DHT22;13866;50.748;12.630;2022-12-07T17:41:39;1.80;99.90
26107;DHT22;13866;50.748;12.630;2022-12-07T17:44:24;1.80;99.90